Time;durP1;ratioP1;P1;durP2;ratioP2;P2;SDS_P1;SDS_P2;PMS_P1;PMS_P2;Temp;Humidity;BMP_temperature;BMP_pressure;BME280_temperature;BME280_humidity;BME280_pressure;Samples;Min_cycle;Max_cycle;Signal;HPM_P1;HPM_P2
2023/11/24 00:00:54;;;;;;;10.98;6.07;;;;;;;25.15;36.81;99003.28;4376763;32;34158;-52
2023/11/24 00:03:22;;;;;;;11.35;6.03;;;;;;;25.14;36.87;98996.19;4376585;32;34306;-56
2023/11/24 00:05:50;;;;;;;8.88;5.82;;;;;;;25.14;36.80;98993.47;4376759;32;34344;-55
2023/11/24 00:08:17;;;;;;;10.75;6.25;;;;;;;25.13;36.86;98994.56;4376956;32;33922;-57
2023/11/24 00:10:45;;;;;;;9.40;5.82;;;;;;;25.12;36.90;98997.53;4376583;32;34048;-57
2023/11/24 00:13:12;;;;;;;7.85;5.75;;;;;;;25.11;36.92;98993.97;4376657;32;33932;-58
2023/11/24 00:15:42;;;;;;;9.63;5.65;;;;;;;25.10;36.92;98980.59;4362437;32;33494;-54
2023/11/24 00:18:11;;;;;;;9.65;5.80;;;;;;;25.10;36.85;98973.22;4361371;32;34762;-57
2023/11/24 00:20:39;;;;;;;9.43;5.47;;;;;;;25.09;36.92;98970.75;4361805;32;34159;-57
2023/11/24 00:23:06;;;;;;;9.57;5.87;;;;;;;25.07;36.89;98961.94;4361628;32;34183;-59
2023/11/24 00:25:34;;;;;;;10.20;5.85;;;;;;;25.06;37.00;98943.94;4361491;32;33621;-55
2023/11/24 00:28:01;;;;;;;8.93;5.12;;;;;;;25.04;36.98;98936.00;4361606;32;34419;-57
2023/11/24 00:30:29;;;;;;;9.48;5.65;;;;;;;25.02;37.01;98932.69;4361455;32;34192;-55
2023/11/24 00:32:57;;;;;;;11.18;5.50;;;;;;;25.03;37.14;98922.59;4361405;32;34233;-56
2023/11/24 00:35:24;;;;;;;10.07;5.43;;;;;;;25.02;37.21;98908.12;4361515;32;34446;-53
2023/11/24 00:37:52;;;;;;;9.88;6.03;;;;;;;25.00;37.15;98893.13;4348047;32;33838;-56
2023/11/24 00:40:20;;;;;;;10.82;6.03;;;;;;;25.00;37.16;98893.94;4372656;32;34843;-53
2023/11/24 00:42:47;;;;;;;7.97;5.57;;;;;;;24.98;37.14;98887.91;4376140;32;33894;-56
2023/11/24 00:45:16;;;;;;;7.72;5.45;;;;;;;24.99;37.12;98880.53;4376334;32;34081;-53
2023/11/24 00:47:44;;;;;;;7.50;5.12;;;;;;;24.97;37.15;98880.81;4376157;32;34050;-56
2023/11/24 00:50:12;;;;;;;8.35;5.03;;;;;;;24.97;37.10;98879.97;4377019;32;33669;-55
2023/11/24 00:52:39;;;;;;;8.85;5.60;;;;;;;24.96;37.05;98879.16;4378293;32;34338;-55
2023/11/24 00:55:07;;;;;;;8.35;5.82;;;;;;;24.96;37.08;98878.34;4377965;32;33412;-56
2023/11/24 00:57:36;;;;;;;7.70;5.50;;;;;;;24.96;37.04;98875.59;4378006;32;34657;-57
2023/11/24 01:00:07;;;;;;;10.52;5.68;;;;;;;24.94;37.21;98879.41;4378053;32;34927;-56
2023/11/24 01:02:36;;;;;;;7.65;5.53;;;;;;;24.92;37.18;98878.84;4377832;32;34579;-53
2023/11/24 01:05:05;;;;;;;8.85;5.12;;;;;;;24.92;37.17;98869.84;4378068;32;33279;-56
2023/11/24 01:07:33;;;;;;;8.60;5.32;;;;;;;24.91;37.27;98865.47;4378030;32;33994;-58
2023/11/24 01:10:01;;;;;;;7.93;4.95;;;;;;;24.89;37.23;98857.53;4378144;32;34249;-54
2023/11/24 01:12:31;;;;;;;9.82;6.07;;;;;;;24.89;37.14;98868.44;4377866;32;35139;-55
2023/11/24 01:14:59;;;;;;;9.10;5.55;;;;;;;24.88;37.14;98855.88;4367681;32;33207;-55
2023/11/24 01:17:26;;;;;;;8.13;4.68;;;;;;;24.87;37.18;98865.16;4362752;32;34917;-56
2023/11/24 01:19:54;;;;;;;7.65;4.82;;;;;;;24.86;37.21;98868.16;4362925;32;34846;-53
2023/11/24 01:22:24;;;;;;;7.43;4.60;;;;;;;24.86;37.14;98865.44;4362666;32;34263;-56
2023/11/24 01:24:52;;;;;;;7.12;5.12;;;;;;;24.84;37.32;98865.66;4362804;32;33740;-55
2023/11/24 01:27:20;;;;;;;9.60;5.10;;;;;;;24.85;37.29;98855.56;4362927;32;33743;-57
2023/11/24 01:29:47;;;;;;;9.43;4.68;;;;;;;24.83;37.41;98850.37;4362707;32;33820;-57
2023/11/24 01:32:15;;;;;;;7.65;4.68;;;;;;;24.82;37.48;98837.00;4362745;32;34955;-53
2023/11/24 01:34:42;;;;;;;8.85;5.05;;;;;;;24.81;37.52;98840.81;4362827;32;33683;-57
2023/11/24 01:37:10;;;;;;;7.70;5.32;;;;;;;24.80;37.55;98826.34;4362557;32;33897;-56
2023/11/24 01:39:38;;;;;;;8.68;5.70;;;;;;;24.79;37.62;98815.69;4362863;32;34848;-58
2023/11/24 01:42:06;;;;;;;8.75;5.45;;;;;;;24.78;37.60;98811.31;4362691;32;33698;-57
2023/11/24 01:44:33;;;;;;;11.45;5.55;;;;;;;24.78;37.65;98800.41;4362564;32;33531;-58
2023/11/24 01:47:01;;;;;;;9.07;4.75;;;;;;;24.76;37.61;98787.03;4362678;32;34734;-57
2023/11/24 01:49:28;;;;;;;7.68;5.30;;;;;;;24.76;37.70;98787.03;4362595;32;34056;-57
2023/11/24 01:51:56;;;;;;;9.00;5.22;;;;;;;24.75;37.78;98774.47;4362785;32;34242;-56
2023/11/24 01:54:25;;;;;;;7.80;4.75;;;;;;;24.74;37.64;98774.72;4362688;32;33753;-57
2023/11/24 01:56:55;;;;;;;11.32;5.55;;;;;;;24.75;37.65;98773.63;4362663;32;34773;-57
2023/11/24 01:59:22;;;;;;;9.27;4.82;;;;;;;24.72;37.78;98775.00;4349305;32;34116;-56
2023/11/24 02:01:50;;;;;;;8.93;5.07;;;;;;;24.73;37.68;98767.63;4349117;32;34283;-57
2023/11/24 02:04:20;;;;;;;8.32;5.22;;;;;;;24.72;37.69;98766.00;4362665;32;33437;-53
2023/11/24 02:06:48;;;;;;;6.80;4.45;;;;;;;24.71;37.74;98761.59;4362556;32;33851;-57
2023/11/24 02:09:16;;;;;;;7.37;5.00;;;;;;;24.72;37.70;98760.53;4362597;32;34050;-54
2023/11/24 02:11:44;;;;;;;7.55;4.80;;;;;;;24.69;37.68;98756.41;4362566;32;34578;-56
2023/11/24 02:14:12;;;;;;;8.10;5.00;;;;;;;24.68;37.76;98752.88;4362792;32;33708;-53
2023/11/24 02:16:40;;;;;;;8.30;5.00;;;;;;;24.66;37.78;98744.09;4362398;32;33758;-54
2023/11/24 02:19:08;;;;;;;9.52;5.20;;;;;;;24.66;37.81;98724.19;4362387;32;34817;-56
2023/11/24 02:21:35;;;;;;;9.73;5.25;;;;;;;24.65;37.89;98712.47;4362772;32;34949;-53
2023/11/24 02:24:05;;;;;;;7.20;4.60;;;;;;;24.64;37.90;98704.56;4362533;32;33712;-59
2023/11/24 02:26:33;;;;;;;8.32;5.32;;;;;;;24.64;37.86;98707.28;4362478;32;34077;-56
2023/11/24 02:29:01;;;;;;;6.97;4.35;;;;;;;24.63;37.85;98703.72;4362627;32;34075;-57
2023/11/24 02:31:28;;;;;;;9.27;5.00;;;;;;;24.62;37.87;98693.06;4362430;32;35044;-55
2023/11/24 02:33:56;;;;;;;9.40;5.30;;;;;;;24.61;37.91;98681.34;4362309;32;33481;-55
2023/11/24 02:36:27;;;;;;;8.35;5.10;;;;;;;24.61;37.94;98664.16;4362396;32;33932;-54
2023/11/24 02:38:55;;;;;;;7.40;4.60;;;;;;;24.61;37.91;98667.69;4349366;32;34092;-56
2023/11/24 02:41:23;;;;;;;7.43;4.82;;;;;;;24.59;37.91;98661.69;4362349;32;33816;-54
2023/11/24 02:43:51;;;;;;;9.25;4.70;;;;;;;24.59;37.91;98649.97;4362467;32;33689;-54
2023/11/24 02:46:18;;;;;;;9.68;4.20;;;;;;;24.59;37.84;98649.97;4362372;32;33652;-56
2023/11/24 02:48:46;;;;;;;7.07;4.50;;;;;;;24.58;37.96;98642.88;4362168;32;34939;-57
2023/11/24 02:51:14;;;;;;;7.65;5.18;;;;;;;24.58;37.92;98634.69;4362520;32;34155;-57
2023/11/24 02:53:42;;;;;;;8.50;4.55;;;;;;;24.56;37.98;98617.75;4348893;32;33811;-55
2023/11/24 02:56:10;;;;;;;7.12;4.50;;;;;;;24.56;38.00;98607.66;4362286;32;34684;-59
2023/11/24 02:58:37;;;;;;;8.50;5.03;;;;;;;24.56;37.99;98615.03;4362269;32;34046;-56
2023/11/24 03:01:05;;;;;;;6.80;4.62;;;;;;;24.55;38.04;98624.28;4362235;32;34257;-54
2023/11/24 03:03:33;;;;;;;7.35;4.40;;;;;;;24.54;38.00;98634.38;4362163;32;33693;-56
2023/11/24 03:06:05;;;;;;;6.40;4.57;;;;;;;24.54;37.99;98617.22;4362241;32;34698;-56
2023/11/24 03:08:33;;;;;;;7.43;4.30;;;;;;;24.54;37.98;98615.28;4362033;32;34232;-57
2023/11/24 03:11:06;;;;;;;11.12;4.82;;;;;;;24.53;37.97;98613.66;4362115;32;35022;-58
2023/11/24 03:13:34;;;;;;;11.55;4.95;;;;;;;24.53;37.94;98621.84;4362550;32;34346;-58
2023/11/24 03:16:03;;;;;;;7.87;5.03;;;;;;;24.52;38.01;98625.62;4376716;32;33808;-59
2023/11/24 03:18:31;;;;;;;8.38;4.28;;;;;;;24.50;37.98;98622.34;4377034;32;34829;-59
2023/11/24 03:20:58;;;;;;;7.75;4.78;;;;;;;24.51;37.99;98607.63;4377025;32;33983;-58
2023/11/24 03:23:26;;;;;;;8.38;4.87;;;;;;;24.51;37.96;98599.44;4377056;32;33437;-57
2023/11/24 03:25:53;;;;;;;8.05;4.50;;;;;;;24.49;38.04;98588.00;4363729;32;34064;-58
2023/11/24 03:28:22;;;;;;;7.05;4.20;;;;;;;24.49;38.00;98585.28;4376980;32;33821;-57
2023/11/24 03:30:50;;;;;;;6.37;4.32;;;;;;;24.50;38.00;98584.19;4376880;32;34348;-59
2023/11/24 03:33:17;;;;;;;7.57;5.07;;;;;;;24.48;38.00;98569.16;4376977;32;34572;-59
2023/11/24 03:35:45;;;;;;;6.40;4.00;;;;;;;24.47;37.96;98560.16;4376949;32;34133;-59
2023/11/24 03:38:13;;;;;;;9.02;4.50;;;;;;;24.46;37.98;98563.97;4376795;32;34173;-59
2023/11/24 03:40:42;;;;;;;9.40;4.75;;;;;;;24.46;38.09;98557.69;4376902;32;35079;-59
2023/11/24 03:43:10;;;;;;;8.07;4.47;;;;;;;24.45;37.99;98545.97;4376804;32;34391;-56
2023/11/24 03:45:37;;;;;;;8.40;4.72;;;;;;;24.46;38.04;98539.44;4376621;32;34915;-58
2023/11/24 03:48:05;;;;;;;7.03;4.50;;;;;;;24.44;38.09;98527.97;4376866;32;33938;-58
2023/11/24 03:50:33;;;;;;;8.40;4.65;;;;;;;24.44;38.02;98530.72;4376829;32;33784;-56
2023/11/24 03:53:01;;;;;;;6.10;4.07;;;;;;;24.42;38.01;98522.78;4376902;32;34722;-59
2023/11/24 03:55:29;;;;;;;8.27;4.45;;;;;;;24.42;38.00;98519.22;4376837;32;34712;-55
2023/11/24 03:57:56;;;;;;;6.55;4.10;;;;;;;24.42;37.96;98516.50;4376790;32;34313;-56
2023/11/24 04:00:24;;;;;;;8.60;4.62;;;;;;;24.40;38.02;98505.06;4376632;32;33883;-58
2023/11/24 04:02:52;;;;;;;5.68;4.05;;;;;;;24.39;38.04;98512.41;4376767;32;33762;-57
2023/11/24 04:05:19;;;;;;;6.18;4.30;;;;;;;24.38;38.08;98505.28;4376806;32;34068;-57
2023/11/24 04:07:46;;;;;;;6.95;4.35;;;;;;;24.38;38.21;98501.75;4376565;32;33201;-58
2023/11/24 04:10:14;;;;;;;6.93;4.47;;;;;;;24.37;38.17;98492.75;4376588;32;35149;-56
2023/11/24 04:12:42;;;;;;;8.15;3.97;;;;;;;24.37;38.17;98495.47;4376625;32;33727;-56
2023/11/24 04:15:09;;;;;;;6.80;4.00;;;;;;;24.37;38.23;98483.75;4365184;32;34174;-55
2023/11/24 04:17:38;;;;;;;7.32;4.10;;;;;;;24.36;38.24;98476.66;4361584;32;33707;-57
2023/11/24 04:20:08;;;;;;;7.72;4.07;;;;;;;24.36;38.28;98474.75;4361883;32;34366;-56
2023/11/24 04:22:37;;;;;;;;;;;;;;;24.35;38.28;98450.47;4362090;32;33601;-56
2023/11/24 04:25:04;;;;;;;6.22;4.20;;;;;;;24.44;38.24;98446.19;4347969;32;34328;-55
2023/11/24 04:27:32;;;;;;;7.97;4.15;;;;;;;24.35;38.24;98443.12;4361497;32;33831;-55
2023/11/24 04:30:00;;;;;;;6.60;4.50;;;;;;;24.34;38.40;98437.91;4361507;32;33942;-55
2023/11/24 04:32:30;;;;;;;8.32;4.25;;;;;;;24.31;38.41;98442.00;4361595;32;34417;-57
2023/11/24 04:34:58;;;;;;;9.90;4.22;;;;;;;24.32;38.43;98443.63;4361319;32;33728;-56
2023/11/24 04:37:25;;;;;;;8.10;4.35;;;;;;;24.31;38.42;98446.63;4361441;32;35165;-57
2023/11/24 04:39:55;;;;;;;7.82;4.30;;;;;;;24.30;38.42;98434.09;4361384;32;34058;-58
2023/11/24 04:42:24;;;;;;;9.25;4.53;;;;;;;24.30;38.43;98431.37;4361060;32;33747;-56
2023/11/24 04:44:53;;;;;;;7.37;3.62;;;;;;;24.28;38.41;98423.44;4361327;32;34043;-56
2023/11/24 04:47:21;;;;;;;8.52;4.37;;;;;;;24.29;38.60;98418.81;4360567;32;34054;-60
2023/11/24 04:49:49;;;;;;;6.93;4.50;;;;;;;24.29;38.49;98411.44;4360842;32;34556;-58
2023/11/24 04:52:16;;;;;;;9.50;4.62;;;;;;;24.28;38.06;98401.63;4360039;32;33771;-57
2023/11/24 04:54:44;;;;;;;9.45;4.68;;;;;;;24.27;38.01;98405.44;4360491;32;33957;-55
2023/11/24 04:57:12;;;;;;;7.20;4.10;;;;;;;24.27;37.98;98397.28;4358898;32;34142;-55
2023/11/24 04:59:40;;;;;;;8.68;4.12;;;;;;;24.27;37.93;98396.47;4359924;32;34286;-58
2023/11/24 05:02:08;;;;;;;9.55;4.50;;;;;;;24.27;37.96;98386.38;4360125;32;33665;-54
2023/11/24 05:04:36;;;;;;;6.80;4.22;;;;;;;24.26;38.00;98395.63;4359268;32;33717;-57
2023/11/24 05:07:04;;;;;;;8.07;4.65;;;;;;;24.27;38.03;98382.81;4360118;32;34764;-58
2023/11/24 05:09:32;;;;;;;9.32;4.18;;;;;;;24.26;37.98;98379.28;4360155;32;34956;-56
2023/11/24 05:12:00;;;;;;;7.25;4.62;;;;;;;24.27;38.04;98389.09;4360081;32;34550;-57
2023/11/24 05:14:27;;;;;;;9.55;4.65;;;;;;;24.27;38.08;98386.38;4366899;32;33833;-57
2023/11/24 05:16:55;;;;;;;7.07;4.47;;;;;;;24.27;38.04;98374.66;4374855;32;34709;-56
2023/11/24 05:19:23;;;;;;;7.50;4.95;;;;;;;24.26;38.09;98373.03;4375016;32;33945;-56
2023/11/24 05:21:50;;;;;;;6.78;4.10;;;;;;;24.26;38.14;98378.47;4375063;32;33656;-56
2023/11/24 05:24:18;;;;;;;7.80;4.60;;;;;;;24.25;38.08;98366.75;4374951;32;34751;-58
2023/11/24 05:26:45;;;;;;;6.87;4.47;;;;;;;24.26;38.12;98365.66;4374953;32;34149;-57
2023/11/24 05:29:16;;;;;;;8.48;4.12;;;;;;;24.26;38.04;98357.47;4374666;32;34228;-56
2023/11/24 05:31:43;;;;;;;9.15;4.65;;;;;;;24.25;38.10;98358.56;4374876;32;34661;-55
2023/11/24 05:34:11;;;;;;;9.27;4.60;;;;;;;24.25;38.12;98358.56;4374975;32;33897;-57
2023/11/24 05:36:38;;;;;;;6.10;4.15;;;;;;;24.24;38.10;98350.66;4376139;32;34074;-55
2023/11/24 05:39:07;;;;;;;6.75;4.40;;;;;;;24.24;38.21;98346.00;4377976;32;34720;-57
2023/11/24 05:41:35;;;;;;;18.17;4.12;;;;;;;24.25;38.22;98338.66;4373647;32;33539;-62
2023/11/24 05:44:02;;;;;;;8.88;5.18;;;;;;;24.25;37.90;98333.19;4362689;32;34107;-62
2023/11/24 05:46:30;;;;;;;9.27;4.85;;;;;;;24.21;36.59;98327.47;4364756;32;33881;-62
2023/11/24 05:48:58;;;;;;;8.40;4.25;;;;;;;24.20;36.62;98323.09;4362620;32;34288;-63
2023/11/24 05:51:26;;;;;;;10.30;4.55;;;;;;;24.17;36.83;98313.56;4362711;32;33663;-63
2023/11/24 05:53:55;;;;;;;11.27;4.80;;;;;;;24.16;36.93;98311.13;4362587;32;34421;-63
2023/11/24 05:56:22;;;;;;;7.87;4.72;;;;;;;24.12;36.96;98313.56;4362863;32;34873;-63
2023/11/24 05:58:51;;;;;;;10.05;5.50;;;;;;;24.10;36.96;98302.06;4362643;32;34274;-62
2023/11/24 06:01:21;;;;;;;7.37;4.68;;;;;;;24.08;36.95;98295.28;4362361;32;33305;-62
2023/11/24 06:03:50;;;;;;;9.40;4.37;;;;;;;24.06;36.92;98309.19;4362373;32;34043;-63
2023/11/24 06:06:18;;;;;;;9.05;4.70;;;;;;;24.02;37.04;98313.50;4362597;32;34661;-63
2023/11/24 06:08:45;;;;;;;6.43;4.05;;;;;;;24.01;37.09;98306.41;4362422;32;34351;-63
2023/11/24 06:11:17;;;;;;;8.45;4.35;;;;;;;23.97;37.14;98305.31;4361869;32;34604;-63
2023/11/24 06:13:46;;;;;;;9.85;5.32;;;;;;;23.97;37.14;98299.88;4363523;32;34801;-62
2023/11/24 06:16:14;;;;;;;10.30;4.55;;;;;;;23.95;37.17;98299.31;4376389;32;34875;-63
2023/11/24 06:18:42;;;;;;;7.93;4.72;;;;;;;23.95;37.18;98310.19;4377052;32;34751;-63
2023/11/24 06:21:12;;;;;;;6.65;4.50;;;;;;;23.92;37.21;98310.72;4377178;32;34466;-63
2023/11/24 06:23:39;;;;;;;8.95;4.65;;;;;;;23.91;37.20;98298.19;4377245;32;33542;-62
2023/11/24 06:26:08;;;;;;;7.25;4.60;;;;;;;23.90;37.19;98300.09;4377196;32;33927;-62
2023/11/24 06:28:35;;;;;;;8.38;4.68;;;;;;;23.88;37.21;98296.03;4377423;32;34489;-63
2023/11/24 06:31:04;;;;;;;7.72;4.43;;;;;;;23.87;37.25;98313.41;4377329;32;33747;-63
2023/11/24 06:33:32;;;;;;;6.18;3.87;;;;;;;23.86;37.26;98314.50;4377734;32;33538;-63
2023/11/24 06:36:00;;;;;;;7.43;4.95;;;;;;;23.84;37.24;98320.25;4377441;32;33151;-63
2023/11/24 06:38:28;;;;;;;8.75;4.93;;;;;;;23.83;37.25;98315.06;4377369;32;35028;-62
2023/11/24 06:40:55;;;;;;;8.05;4.82;;;;;;;23.82;37.26;98324.28;4377523;32;34216;-62
2023/11/24 06:43:23;;;;;;;7.60;5.00;;;;;;;23.79;37.28;98325.66;4377246;32;33929;-62
2023/11/24 06:45:51;;;;;;;7.15;4.35;;;;;;;23.78;37.30;98324.03;4376408;32;33818;-62
2023/11/24 06:48:19;;;;;;;7.55;4.57;;;;;;;23.78;37.28;98324.03;4377425;32;34152;-62
2023/11/24 06:50:47;;;;;;;7.47;4.30;;;;;;;23.78;37.28;98334.06;4377359;32;33745;-62
2023/11/24 06:53:15;;;;;;;7.75;4.97;;;;;;;23.75;37.30;98323.72;4377251;32;33975;-62
2023/11/24 06:55:42;;;;;;;6.80;4.75;;;;;;;23.73;37.30;98326.69;4377123;32;34543;-62
2023/11/24 06:58:09;;;;;;;7.95;5.25;;;;;;;23.73;37.22;98334.06;4377116;32;33819;-63
2023/11/24 07:00:38;;;;;;;7.80;4.78;;;;;;;23.71;37.28;98333.50;4377098;32;33916;-62
2023/11/24 07:03:06;;;;;;;6.82;4.60;;;;;;;23.72;37.25;98326.97;4377459;32;33977;-62
2023/11/24 07:05:33;;;;;;;7.68;4.82;;;;;;;23.71;37.24;98325.34;4376999;32;34948;-62
2023/11/24 07:08:02;;;;;;;8.00;4.55;;;;;;;23.71;37.22;98328.06;4377082;32;34959;-63
2023/11/24 07:10:29;;;;;;;8.82;4.68;;;;;;;23.68;37.22;98330.22;4377154;32;34313;-62
2023/11/24 07:12:59;;;;;;;7.75;4.70;;;;;;;23.68;37.26;98340.28;4376947;32;33918;-62
2023/11/24 07:15:26;;;;;;;6.47;4.97;;;;;;;23.67;37.24;98338.66;4364139;32;33579;-63
2023/11/24 07:17:54;;;;;;;7.82;4.78;;;;;;;23.67;37.25;98330.47;4362393;32;33893;-62
2023/11/24 07:20:22;;;;;;;6.18;4.40;;;;;;;23.65;37.24;98338.09;4362130;32;33551;-63
2023/11/24 07:22:49;;;;;;;5.97;4.22;;;;;;;23.64;37.25;98333.72;4362375;32;34098;-62
2023/11/24 07:25:18;;;;;;;7.20;4.82;;;;;;;23.63;37.26;98330.16;4361960;32;34903;-63
2023/11/24 07:27:45;;;;;;;7.78;4.68;;;;;;;23.62;37.27;98333.16;4348850;32;34154;-63
2023/11/24 07:30:13;;;;;;;6.75;4.37;;;;;;;23.62;37.24;98341.31;4362397;32;33786;-63
2023/11/24 07:32:41;;;;;;;6.50;4.87;;;;;;;23.61;37.25;98345.94;4366778;32;33847;-63
2023/11/24 07:35:10;;;;;;;6.72;4.37;;;;;;;23.60;37.25;98338.06;4376914;32;35019;-62
2023/11/24 07:37:38;;;;;;;5.30;3.95;;;;;;;23.59;37.26;98342.66;4376895;32;34193;-62
2023/11/24 07:40:13;;;;;;;7.87;4.43;;;;;;;23.58;37.23;98349.19;4376940;32;34532;-62
2023/11/24 07:42:43;;;;;;;8.35;5.05;;;;;;;23.57;37.21;98352.19;4376824;32;33976;-62
2023/11/24 07:45:11;;;;;;;7.72;4.53;;;;;;;23.57;37.18;98361.16;4377169;32;34928;-62
2023/11/24 07:47:39;;;;;;;7.32;4.03;;;;;;;23.56;37.12;98348.63;4376743;32;34175;-62
2023/11/24 07:50:07;;;;;;;6.87;3.92;;;;;;;23.55;37.11;98344.28;4374223;32;82705;-63
2023/11/24 07:52:35;;;;;;;7.28;4.72;;;;;;;23.53;37.13;98340.97;4376865;32;33772;-62
2023/11/24 07:55:05;;;;;;;8.00;4.43;;;;;;;23.52;37.16;98341.25;4376654;32;35490;-62
2023/11/24 07:57:35;;;;;;;7.90;4.47;;;;;;;23.53;37.15;98354.59;4377052;32;34523;-62
2023/11/24 08:00:03;;;;;;;6.15;4.03;;;;;;;23.54;37.04;98355.41;4376485;32;33653;-62
2023/11/24 08:02:39;;;;;;;8.18;4.18;;;;;;;23.53;37.13;98354.59;4376796;32;34379;-63
2023/11/24 08:05:08;;;;;;;6.37;4.05;;;;;;;23.53;37.07;98354.59;4376723;32;34203;-62
2023/11/24 08:07:36;;;;;;;6.45;3.95;;;;;;;23.54;37.08;98372.56;4376517;32;34277;-62
2023/11/24 08:10:04;;;;;;;6.22;4.28;;;;;;;23.54;37.12;98367.12;4376839;32;34116;-62
2023/11/24 08:12:32;;;;;;;6.90;3.70;;;;;;;23.54;37.11;98369.84;4376640;32;34551;-62
2023/11/24 08:15:00;;;;;;;6.07;3.90;;;;;;;23.55;37.01;98366.06;4366171;32;33928;-63
2023/11/24 08:17:28;;;;;;;5.53;3.50;;;;;;;23.55;37.04;98371.50;4361646;32;33965;-62
2023/11/24 08:19:55;;;;;;;7.15;4.03;;;;;;;23.56;36.95;98347.81;4361559;32;34688;-62
2023/11/24 08:22:24;;;;;;;7.97;3.95;;;;;;;23.57;36.99;98360.34;4361488;32;34710;-62
2023/11/24 08:24:51;;;;;;;6.15;3.80;;;;;;;23.57;36.99;98354.91;4361552;32;33921;-62
2023/11/24 08:27:22;;;;;;;6.47;4.00;;;;;;;23.57;36.98;98360.34;4361591;32;35015;-62
2023/11/24 08:29:49;;;;;;;5.57;3.65;;;;;;;23.56;37.01;98364.97;4361392;32;33767;-62
2023/11/24 08:32:17;;;;;;;7.37;4.15;;;;;;;23.58;36.98;98351.09;4361577;32;33505;-62
2023/11/24 08:34:45;;;;;;;6.47;3.92;;;;;;;23.59;36.97;98355.44;4361551;32;33839;-62
2023/11/24 08:37:12;;;;;;;7.03;3.50;;;;;;;23.58;36.96;98354.63;4361350;32;34935;-62
2023/11/24 08:39:40;;;;;;;6.70;4.10;;;;;;;23.58;36.93;98351.09;4361531;32;33647;-62
2023/11/24 08:42:10;;;;;;;6.68;4.07;;;;;;;23.59;36.92;98363.59;4347903;32;33973;-62
2023/11/24 08:44:37;;;;;;;7.68;4.35;;;;;;;23.58;36.93;98381.84;4360805;32;35068;-62
2023/11/24 08:47:06;;;;;;;5.97;3.67;;;;;;;23.60;36.89;98384.34;4368972;32;35118;-62
2023/11/24 08:49:35;;;;;;;6.00;3.75;;;;;;;23.60;36.86;98378.88;4361537;32;33715;-62
2023/11/24 08:52:03;;;;;;;7.53;3.58;;;;;;;23.58;36.89;98376.41;4369985;32;34345;-62
2023/11/24 08:54:30;;;;;;;5.25;3.42;;;;;;;23.58;36.88;98379.13;4361195;32;33858;-62
2023/11/24 08:56:58;;;;;;;6.40;3.45;;;;;;;23.59;36.88;98374.50;4365385;32;34192;-63
2023/11/24 08:59:26;;;;;;;5.37;3.42;;;;;;;23.59;36.94;98369.87;4373881;32;33524;-63
2023/11/24 09:01:54;;;;;;;5.80;3.85;;;;;;;23.60;36.89;98348.94;4376090;32;35392;-63
2023/11/24 09:04:22;;;;;;;6.80;4.10;;;;;;;23.59;36.92;98339.94;4370836;32;34190;-62
2023/11/24 09:06:50;;;;;;;6.57;3.72;;;;;;;23.59;36.91;98337.19;4361003;32;33602;-62
2023/11/24 09:09:37;;;;;;;7.25;3.62;;;;;;;23.58;36.97;98335.56;4361077;32;33793;-62
2023/11/24 09:12:05;;;;;;;6.00;3.60;;;;;;;23.59;36.92;98342.66;4362661;32;34089;-62
2023/11/24 09:14:38;;;;;;;5.93;3.65;;;;;;;23.58;36.91;98332.84;4362990;32;33881;-62
2023/11/24 09:17:06;;;;;;;5.20;3.30;;;;;;;23.59;36.92;98328.22;4362621;32;34285;-62
2023/11/24 09:19:34;;;;;;;5.35;3.10;;;;;;;23.59;36.95;98322.78;4362926;32;34586;-63
2023/11/24 09:22:03;;;;;;;7.00;3.75;;;;;;;23.59;36.91;98328.22;4362952;32;34894;-62
2023/11/24 09:24:33;;;;;;;6.43;3.62;;;;;;;23.60;36.90;98321.72;4362757;32;34004;-62
2023/11/24 09:27:00;;;;;;;6.28;3.53;;;;;;;23.60;36.90;98314.34;4362910;32;35170;-62
2023/11/24 09:29:28;;;;;;;7.72;3.42;;;;;;;23.61;36.96;98302.37;4363846;32;34319;-62
2023/11/24 09:31:58;;;;;;;5.65;3.17;;;;;;;23.61;36.97;98296.13;4362686;32;34109;-63
2023/11/24 09:34:25;;;;;;;5.60;3.33;;;;;;;23.61;36.97;98288.75;4375959;32;34536;-65
2023/11/24 09:36:54;;;;;;;5.47;3.12;;;;;;;23.62;36.94;98276.78;4376947;32;33976;-62
2023/11/24 09:39:26;;;;;;;8.25;3.17;;;;;;;23.62;36.96;98254.19;4372142;32;34279;-64
2023/11/24 09:41:55;;;;;;;6.47;2.87;;;;;;;23.62;36.97;98256.91;4364409;32;34504;-65
2023/11/24 09:44:23;;;;;;;5.75;2.90;;;;;;;23.63;36.99;98267.53;4340607;32;34041;-65
2023/11/24 09:46:51;;;;;;;5.87;2.87;;;;;;;23.63;37.00;98253.91;4364166;32;34270;-64
2023/11/24 09:49:20;;;;;;;10.10;2.90;;;;;;;23.64;36.98;98249.31;4359934;32;33395;-65
2023/11/24 09:51:48;;;;;;;7.50;3.12;;;;;;;23.64;37.02;98242.00;4367069;32;34027;-65
2023/11/24 09:54:17;;;;;;;5.53;3.50;;;;;;;23.64;37.04;98242.00;4349665;32;34108;-64
2023/11/24 09:56:45;;;;;;;4.47;2.90;;;;;;;23.64;37.03;98236.53;4352589;32;34519;-64
2023/11/24 09:59:13;;;;;;;6.22;3.33;;;;;;;23.65;37.00;98232.72;4371895;32;34471;-65
2023/11/24 10:01:42;;;;;;;5.82;2.83;;;;;;;23.65;37.04;98231.91;4362961;32;33920;-63
2023/11/24 10:04:10;;;;;;;8.23;3.20;;;;;;;23.66;37.03;98211.75;4377465;32;34714;-65
2023/11/24 10:06:39;;;;;;;5.28;2.95;;;;;;;23.66;37.04;98220.75;4365644;32;34433;-64
2023/11/24 10:09:10;;;;;;;7.00;2.72;;;;;;;23.66;37.05;98219.94;4337073;32;33708;-64
2023/11/24 10:11:38;;;;;;;6.15;3.10;;;;;;;23.65;37.07;98213.66;4362293;32;34658;-64
2023/11/24 10:14:12;;;;;;;7.82;2.95;;;;;;;23.64;37.11;98197.56;4362452;32;34048;-64
2023/11/24 10:16:40;;;;;;;7.00;3.33;;;;;;;23.64;37.16;98192.13;4373306;32;34238;-65
2023/11/24 10:19:14;;;;;;;5.93;2.58;;;;;;;23.63;37.16;98195.91;4349755;32;34539;-65
2023/11/24 10:21:51;;;;;;;7.35;2.78;;;;;;;23.62;37.19;98225.06;4376681;32;33725;-64
2023/11/24 10:24:20;;;;;;;10.68;2.80;;;;;;;23.62;37.18;98213.34;4376796;32;33986;-65
2023/11/24 10:26:50;;;;;;;8.95;2.92;;;;;;;23.60;37.20;98208.19;4364706;32;34101;-65
2023/11/24 10:29:19;;;;;;;6.57;2.78;;;;;;;23.60;37.21;98202.72;4363440;32;33804;-63
2023/11/24 10:31:46;;;;;;;6.87;2.72;;;;;;;23.60;37.25;98182.84;4362818;32;34084;-65
2023/11/24 10:34:15;;;;;;;7.53;2.50;;;;;;;23.58;37.25;98165.94;4364252;32;34981;-65
2023/11/24 10:36:45;;;;;;;8.20;2.97;;;;;;;23.57;37.26;98170.56;4352369;32;34253;-64
2023/11/24 10:39:14;;;;;;;7.85;2.70;;;;;;;23.56;37.28;98168.12;4351637;32;33551;-63
2023/11/24 10:41:43;;;;;;;5.97;2.70;;;;;;;23.55;37.23;98172.75;4349421;32;34189;-64
2023/11/24 10:44:13;;;;;;;9.60;3.15;;;;;;;23.54;37.04;98170.28;4341696;32;34905;-65
2023/11/24 10:46:43;;;;;;;;;;;;;;;23.52;36.94;98159.66;4373248;32;35117;-64
2023/11/24 10:49:20;;;;;;;5.68;2.45;;;;;;;23.61;36.76;98152.62;4377024;32;33269;-63
2023/11/24 10:52:00;;;;;;;5.32;2.60;;;;;;;23.52;36.86;98154.22;4349060;32;34797;-64
2023/11/24 10:54:39;;;;;;;5.07;2.55;;;;;;;23.48;36.92;98144.94;4369670;32;33897;-65
2023/11/24 10:57:06;;;;;;;9.02;2.92;;;;;;;23.47;36.96;98150.66;4362545;32;34169;-64
2023/11/24 10:59:34;;;;;;;6.97;3.22;;;;;;;23.44;36.86;98138.41;4362259;32;33785;-64
2023/11/24 11:02:05;;;;;;;9.05;2.80;;;;;;;23.42;36.93;98119.63;4347810;32;34883;-63
2023/11/24 11:04:35;;;;;;;11.00;2.75;;;;;;;23.42;36.82;98108.72;4373439;32;33898;-65
2023/11/24 11:07:17;;;;;;;7.60;2.40;;;;;;;23.41;36.83;98089.97;4362759;32;34734;-64
2023/11/24 11:09:48;;;;;;;7.45;2.15;;;;;;;23.42;36.81;98095.13;4359520;32;34605;-64
2023/11/24 11:12:38;;;;;;;8.10;2.45;;;;;;;23.39;36.84;98114.69;4377241;32;33981;-65
2023/11/24 11:15:09;;;;;;;8.35;2.55;;;;;;;23.39;36.84;98130.22;4354727;32;34868;-65
2023/11/24 11:17:38;;;;;;;10.32;2.58;;;;;;;23.37;36.86;98135.94;4363182;32;33980;-64
2023/11/24 11:20:15;;;;;;;10.00;2.43;;;;;;;23.37;36.84;98132.41;4365738;32;33659;-65
2023/11/24 11:22:43;;;;;;;10.57;2.40;;;;;;;23.37;36.74;98126.97;4362175;32;33654;-65
2023/11/24 11:25:14;;;;;;;6.75;2.40;;;;;;;23.34;36.64;98130.19;4345302;32;33364;-64
2023/11/24 11:27:43;;;;;;;8.02;2.70;;;;;;;23.32;36.66;98140.56;4355961;32;33575;-64
2023/11/24 11:30:26;;;;;;;5.28;2.33;;;;;;;23.33;36.56;98145.72;4376524;32;33800;-65
2023/11/24 11:33:14;;;;;;;6.60;2.53;;;;;;;23.34;36.60;98132.91;4369175;32;35318;-63
2023/11/24 11:35:42;;;;;;;8.35;2.37;;;;;;;23.33;36.58;98125.84;4365491;32;34133;-65
2023/11/24 11:38:13;;;;;;;6.45;2.67;;;;;;;23.30;36.65;98115.47;4359166;32;34725;-63
2023/11/24 11:40:44;;;;;;;7.10;2.50;;;;;;;23.28;36.67;98104.88;4362609;32;33726;-65